Time;durP1;ratioP1;P1;durP2;ratioP2;P2;SDS_P1;SDS_P2;PMS_P1;PMS_P2;Temp;Humidity;BMP_temperature;BMP_pressure;BME280_temperature;BME280_humidity;BME280_pressure;Samples;Min_cycle;Max_cycle;Signal;HPM_P1;HPM_P2
2023/10/30 00:02:09;;;;;;;;;;;20.10;85.90;;;;;;6285611;22;42899;-86
2023/10/30 00:04:35;;;;;;;;;;;20.10;87.70;;;;;;6285708;22;42785;-86
2023/10/30 00:07:01;;;;;;;;;;;20.00;88.40;;;;;;6285629;22;43809;-86
2023/10/30 00:15:10;;;;;;;;;;;20.00;85.70;;;;;;6279359;22;42780;-82
2023/10/30 00:17:39;;;;;;;;;;;19.90;85.60;;;;;;6278799;22;43875;-87
2023/10/30 00:20:20;;;;;;;;;;;20.00;85.70;;;;;;6278069;22;42767;-83
2023/10/30 00:22:51;;;;;;;;;;;20.10;85.70;;;;;;6278303;22;43679;-86
2023/10/30 00:25:18;;;;;;;;;;;20.10;85.70;;;;;;6278115;22;43035;-85
2023/10/30 00:27:43;;;;;;;;;;;20.00;87.40;;;;;;6278120;22;43495;-85
2023/10/30 00:30:09;;;;;;;;;;;20.10;87.50;;;;;;6278069;22;43115;-87
2023/10/30 00:32:35;;;;;;;;;;;20.00;87.60;;;;;;6275948;22;42867;-85
2023/10/30 00:35:00;;;;;;;;;;;19.90;87.90;;;;;;6277212;22;42941;-83
2023/10/30 00:37:26;;;;;;;;;;;19.90;87.90;;;;;;6278288;22;43777;-87
2023/10/30 00:39:51;;;;;;;;;;;19.80;87.90;;;;;;6277638;22;42965;-88
2023/10/30 00:42:17;;;;;;;;;;;20.10;88.00;;;;;;6278396;22;42862;-86
2023/10/30 00:44:42;;;;;;;;;;;20.10;87.90;;;;;;6277106;22;43203;-88
2023/10/30 00:47:07;;;;;;;;;;;20.10;87.90;;;;;;6277517;22;42787;-84
2023/10/30 00:49:33;;;;;;;;;;;19.90;88.00;;;;;;6277247;22;42935;-86
2023/10/30 00:51:58;;;;;;;;;;;20.10;87.50;;;;;;6278268;22;43159;-85
2023/10/30 00:54:24;;;;;;;;;;;20.00;87.40;;;;;;6278090;22;42954;-82
2023/10/30 00:56:49;;;;;;;;;;;19.90;87.90;;;;;;6277794;22;42662;-87
2023/10/30 00:59:15;;;;;;;;;;;20.00;88.00;;;;;;6277813;22;42848;-87
2023/10/30 01:01:41;;;;;;;;;;;20.00;87.90;;;;;;6277725;22;42870;-87
2023/10/30 01:04:07;;;;;;;;;;;19.90;87.80;;;;;;6278414;22;42910;-88
2023/10/30 01:06:33;;;;;;;;;;;20.00;87.80;;;;;;6278087;22;42941;-84
2023/10/30 01:08:58;;;;;;;;;;;19.80;87.70;;;;;;6277804;22;42933;-85
2023/10/30 01:11:24;;;;;;;;;;;20.10;87.80;;;;;;6277235;22;42759;-85
2023/10/30 01:13:49;;;;;;;;;;;20.00;87.80;;;;;;6277541;22;42909;-87
2023/10/30 01:16:15;;;;;;;;;;;19.90;87.80;;;;;;6277407;22;43513;-86
2023/10/30 01:18:40;;;;;;;;;;;20.00;87.30;;;;;;6277214;22;42939;-82
2023/10/30 01:21:09;;;;;;;;;;;19.90;87.70;;;;;;6277571;22;42904;-87
2023/10/30 01:23:35;;;;;;;;;;;20.00;86.00;;;;;;6277911;22;42882;-86
2023/10/30 01:26:00;;;;;;;;;;;20.10;88.00;;;;;;6276310;22;44754;-88
2023/10/30 01:28:26;;;;;;;;;;;20.00;88.00;;;;;;6277030;22;42905;-88
2023/10/30 01:30:51;;;;;;;;;;;20.00;87.30;;;;;;6278425;22;42886;-88
2023/10/30 01:33:17;;;;;;;;;;;20.10;88.10;;;;;;6277973;22;42913;-88
2023/10/30 01:35:42;;;;;;;;;;;20.10;87.80;;;;;;6277760;22;43075;-86
2023/10/30 01:38:08;;;;;;;;;;;20.50;88.20;;;;;;6278047;22;42808;-88
2023/10/30 01:40:34;;;;;;;;;;;19.90;87.80;;;;;;6276717;22;42914;-87
2023/10/30 01:43:06;;;;;;;;;;;20.10;88.00;;;;;;6278487;22;42938;-88
2023/10/30 01:45:31;;;;;;;;;;;20.00;87.90;;;;;;6277600;22;43768;-85
2023/10/30 01:47:57;;;;;;;;;;;19.80;87.70;;;;;;6278027;22;42776;-87
2023/10/30 01:50:22;;;;;;;;;;;20.00;87.90;;;;;;6276984;22;42805;-88
2023/10/30 01:52:48;;;;;;;;;;;20.00;87.40;;;;;;6276698;22;42832;-87
2023/10/30 01:55:14;;;;;;;;;;;20.10;88.00;;;;;;6276905;22;42841;-87
2023/10/30 01:57:40;;;;;;;;;;;20.10;87.80;;;;;;6276086;22;42926;-87
2023/10/30 02:00:06;;;;;;;;;;;20.50;88.20;;;;;;6277090;22;42912;-87
2023/10/30 02:02:33;;;;;;;;;;;20.00;87.20;;;;;;6277230;22;42917;-87
2023/10/30 02:04:58;;;;;;;;;;;20.20;88.00;;;;;;6277366;22;42867;-85
2023/10/30 02:07:24;;;;;;;;;;;19.90;87.90;;;;;;6277136;22;42799;-85
2023/10/30 02:09:50;;;;;;;;;;;19.90;87.80;;;;;;6274476;22;42824;-88
2023/10/30 02:12:16;;;;;;;;;;;20.00;87.40;;;;;;6277147;22;42673;-87
2023/10/30 02:14:41;;;;;;;;;;;20.00;87.90;;;;;;6277174;22;42818;-87
2023/10/30 02:17:07;;;;;;;;;;;20.10;88.00;;;;;;6276546;22;42905;-85
2023/10/30 02:19:32;;;;;;;;;;;19.90;87.90;;;;;;6277878;22;44259;-88
2023/10/30 02:21:58;;;;;;;;;;;20.10;87.40;;;;;;6277153;22;42771;-88
2023/10/30 02:24:24;;;;;;;;;;;19.90;87.80;;;;;;6277562;22;42802;-86
2023/10/30 02:26:50;;;;;;;;;;;20.10;87.90;;;;;;6277685;22;42952;-86
2023/10/30 02:29:16;;;;;;;;;;;19.90;87.80;;;;;;6284272;22;43625;-86
2023/10/30 02:31:42;;;;;;;;;;;19.90;87.70;;;;;;6285212;22;42898;-88
2023/10/30 02:34:08;;;;;;;;;;;20.00;87.70;;;;;;6288599;22;43327;-87
2023/10/30 02:36:33;;;;;;;;;;;20.10;87.80;;;;;;6279379;22;42926;-88
2023/10/30 02:38:59;;;;;;;;;;;19.90;87.70;;;;;;6277604;22;43744;-89
2023/10/30 02:41:29;;;;;;;;;;;20.10;87.70;;;;;;6277750;22;42740;-87
2023/10/30 02:43:54;;;;;;;;;;;20.10;87.70;;;;;;6277139;22;43462;-86
2023/10/30 02:46:20;;;;;;;;;;;19.90;87.60;;;;;;6275546;22;42890;-88
2023/10/30 02:48:45;;;;;;;;;;;20.20;87.20;;;;;;6276145;22;42933;-88
2023/10/30 02:51:11;;;;;;;;;;;19.90;87.70;;;;;;6276949;22;43407;-88
2023/10/30 02:53:37;;;;;;;;;;;20.00;87.20;;;;;;6276774;22;42789;-85
2023/10/30 02:56:02;;;;;;;;;;;20.00;87.70;;;;;;6277357;22;42851;-86
2023/10/30 02:58:28;;;;;;;;;;;20.10;87.40;;;;;;6276905;22;42857;-86
2023/10/30 03:00:54;;;;;;;;;;;20.00;87.10;;;;;;6276467;22;42851;-87
2023/10/30 03:03:19;;;;;;;;;;;20.10;87.20;;;;;;6275848;22;42811;-88
2023/10/30 03:05:45;;;;;;;;;;;20.00;87.20;;;;;;6277043;22;42775;-84
2023/10/30 03:08:10;;;;;;;;;;;20.10;87.20;;;;;;6276822;22;43709;-87
2023/10/30 03:10:36;;;;;;;;;;;20.00;87.70;;;;;;6275613;22;42998;-88
2023/10/30 03:13:01;;;;;;;;;;;20.00;87.70;;;;;;6275770;22;42772;-87
2023/10/30 03:15:27;;;;;;;;;;;20.10;87.70;;;;;;6277247;22;42903;-87
2023/10/30 03:17:53;;;;;;;;;;;20.10;87.80;;;;;;6276765;22;43714;-87
2023/10/30 03:20:18;;;;;;;;;;;20.10;87.70;;;;;;6277002;22;42937;-85
2023/10/30 03:22:44;;;;;;;;;;;20.10;87.70;;;;;;6278555;22;42905;-88
2023/10/30 03:25:09;;;;;;;;;;;20.10;87.30;;;;;;6278208;22;42795;-88
2023/10/30 03:27:35;;;;;;;;;;;20.00;88.00;;;;;;6278300;22;42962;-86
2023/10/30 03:30:00;;;;;;;;;;;19.90;87.70;;;;;;6278409;22;42934;-88
2023/10/30 03:32:26;;;;;;;;;;;20.00;87.70;;;;;;6277736;22;42855;-88
2023/10/30 03:34:52;;;;;;;;;;;20.20;88.00;;;;;;6277321;22;42905;-87
2023/10/30 03:37:18;;;;;;;;;;;20.00;87.70;;;;;;6278453;22;42905;-87
2023/10/30 03:39:44;;;;;;;;;;;20.10;87.80;;;;;;6278573;22;42744;-86
2023/10/30 03:42:10;;;;;;;;;;;20.20;87.30;;;;;;6278356;22;43701;-86
2023/10/30 03:44:35;;;;;;;;;;;19.90;87.70;;;;;;6277638;22;42729;-87
2023/10/30 03:47:01;;;;;;;;;;;20.00;87.20;;;;;;6277859;22;42764;-87
2023/10/30 03:49:26;;;;;;;;;;;20.20;88.00;;;;;;6277614;22;42827;-87
2023/10/30 03:51:52;;;;;;;;;;;20.00;87.80;;;;;;6276572;22;43575;-87
2023/10/30 03:54:17;;;;;;;;;;;20.00;87.80;;;;;;6277582;22;42854;-87
2023/10/30 03:56:43;;;;;;;;;;;20.20;87.90;;;;;;6277851;22;42819;-89
2023/10/30 03:59:09;;;;;;;;;;;20.00;87.60;;;;;;6277491;22;42921;-85
2023/10/30 04:01:35;;;;;;;;;;;20.10;87.70;;;;;;6277804;22;43348;-83
2023/10/30 04:04:01;;;;;;;;;;;20.10;87.70;;;;;;6278506;22;43021;-87
2023/10/30 04:06:26;;;;;;;;;;;20.20;87.90;;;;;;6278120;22;42787;-88
2023/10/30 04:08:52;;;;;;;;;;;20.00;87.70;;;;;;6277995;22;43033;-87
2023/10/30 04:11:20;;;;;;;;;;;20.10;87.90;;;;;;6278499;22;42995;-87
2023/10/30 04:13:46;;;;;;;;;;;20.00;86.30;;;;;;6278283;22;42982;-87
2023/10/30 04:16:15;;;;;;;;;;;20.20;87.90;;;;;;6277722;22;43517;-87
2023/10/30 04:18:41;;;;;;;;;;;20.00;87.60;;;;;;6278002;22;42827;-88
2023/10/30 04:21:07;;;;;;;;;;;20.00;87.20;;;;;;6276550;22;43686;-87
2023/10/30 04:23:32;;;;;;;;;;;20.10;87.70;;;;;;6278367;22;42936;-88
2023/10/30 04:25:58;;;;;;;;;;;20.10;87.80;;;;;;6277684;22;42832;-86
2023/10/30 04:28:23;;;;;;;;;;;20.00;87.80;;;;;;6278299;22;42926;-86
2023/10/30 04:30:49;;;;;;;;;;;19.80;87.60;;;;;;6278329;22;42753;-88
2023/10/30 04:33:14;;;;;;;;;;;20.10;87.90;;;;;;6277514;22;42709;-84
2023/10/30 04:35:40;;;;;;;;;;;20.00;87.30;;;;;;6278278;22;43249;-87
2023/10/30 04:38:05;;;;;;;;;;;20.10;87.30;;;;;;6277783;22;42846;-87
2023/10/30 04:40:31;;;;;;;;;;;20.10;87.80;;;;;;6278455;22;42917;-86
2023/10/30 04:42:56;;;;;;;;;;;20.10;87.80;;;;;;6278420;22;42681;-87
2023/10/30 04:45:22;;;;;;;;;;;20.00;87.60;;;;;;6278863;22;44490;-86
2023/10/30 04:47:48;;;;;;;;;;;20.00;87.70;;;;;;6278250;22;42880;-88
2023/10/30 04:50:13;;;;;;;;;;;20.10;87.80;;;;;;6277256;22;42782;-88
2023/10/30 04:52:39;;;;;;;;;;;20.00;87.80;;;;;;6278547;22;43082;-87
2023/10/30 04:55:05;;;;;;;;;;;20.00;87.80;;;;;;6280502;22;43651;-87
2023/10/30 04:57:30;;;;;;;;;;;20.00;87.10;;;;;;6283979;22;43041;-88
2023/10/30 04:59:56;;;;;;;;;;;20.20;87.40;;;;;;6285331;22;42807;-86
2023/10/30 05:02:21;;;;;;;;;;;20.10;87.90;;;;;;6282799;22;42833;-88
2023/10/30 05:04:47;;;;;;;;;;;20.20;87.80;;;;;;6277794;22;43579;-86
2023/10/30 05:07:12;;;;;;;;;;;20.10;87.20;;;;;;6278250;22;42846;-88
2023/10/30 05:09:38;;;;;;;;;;;20.10;87.80;;;;;;6278429;22;42781;-86
2023/10/30 05:12:04;;;;;;;;;;;20.10;87.90;;;;;;6278284;22;42784;-88
2023/10/30 05:14:29;;;;;;;;;;;19.60;87.10;;;;;;6276802;22;43100;-87
2023/10/30 05:16:55;;;;;;;;;;;20.10;88.00;;;;;;6278807;22;42815;-87
2023/10/30 05:19:20;;;;;;;;;;;20.00;88.00;;;;;;6275661;22;42941;-84
2023/10/30 05:21:46;;;;;;;;;;;20.00;87.80;;;;;;6278277;22;42882;-85
2023/10/30 05:24:11;;;;;;;;;;;20.00;87.80;;;;;;6277367;22;42901;-87
2023/10/30 05:26:37;;;;;;;;;;;20.20;87.90;;;;;;6277965;22;42843;-86
2023/10/30 05:29:03;;;;;;;;;;;20.30;87.90;;;;;;6277325;22;43627;-86
2023/10/30 05:31:28;;;;;;;;;;;19.90;87.70;;;;;;6277530;22;42988;-86
2023/10/30 05:33:54;;;;;;;;;;;20.00;87.80;;;;;;6277591;22;42871;-85
2023/10/30 05:36:20;;;;;;;;;;;20.10;87.80;;;;;;6277038;22;42875;-85
2023/10/30 05:38:46;;;;;;;;;;;20.10;87.80;;;;;;6277380;22;43412;-83
2023/10/30 05:41:11;;;;;;;;;;;19.90;87.60;;;;;;6277021;22;43416;-85
2023/10/30 05:43:37;;;;;;;;;;;20.10;87.20;;;;;;6276410;22;42839;-81
2023/10/30 05:46:02;;;;;;;;;;;19.90;87.60;;;;;;6276498;22;42945;-82
2023/10/30 05:48:28;;;;;;;;;;;20.00;87.40;;;;;;6276289;22;42789;-79
2023/10/30 05:50:53;;;;;;;;;;;19.90;87.60;;;;;;6277039;22;42836;-83
2023/10/30 05:53:19;;;;;;;;;;;20.00;87.30;;;;;;6274446;22;42928;-80
2023/10/30 05:55:44;;;;;;;;;;;20.00;87.90;;;;;;6275617;22;42838;-81
2023/10/30 05:58:12;;;;;;;;;;;20.10;88.00;;;;;;6275135;22;43408;-82
2023/10/30 06:00:37;;;;;;;;;;;20.00;87.90;;;;;;6274895;22;42847;-81
2023/10/30 06:03:03;;;;;;;;;;;20.00;87.90;;;;;;6276737;22;43414;-82
2023/10/30 06:05:28;;;;;;;;;;;19.90;88.10;;;;;;6275654;22;42818;-81
2023/10/30 06:07:54;;;;;;;;;;;20.10;88.60;;;;;;6276544;22;43324;-80
2023/10/30 06:10:22;;;;;;;;;;;19.80;88.30;;;;;;6276559;22;43318;-82
2023/10/30 06:12:47;;;;;;;;;;;19.90;88.10;;;;;;6275587;22;44171;-79
2023/10/30 06:15:13;;;;;;;;;;;19.80;88.70;;;;;;6276693;22;42978;-79
2023/10/30 06:17:38;;;;;;;;;;;20.00;89.00;;;;;;6276211;22;42918;-81
2023/10/30 06:20:07;;;;;;;;;;;19.90;88.90;;;;;;6274546;22;42906;-80
2023/10/30 06:22:32;;;;;;;;;;;19.90;88.60;;;;;;6277173;22;42729;-79
2023/10/30 06:25:00;;;;;;;;;;;19.80;89.10;;;;;;6276737;22;42931;-79
2023/10/30 06:27:26;;;;;;;;;;;20.00;89.10;;;;;;6277300;22;43403;-81
2023/10/30 06:29:51;;;;;;;;;;;20.00;89.40;;;;;;6277920;22;42855;-81
2023/10/30 06:32:17;;;;;;;;;;;19.80;89.40;;;;;;6276222;22;42905;-80
2023/10/30 06:34:42;;;;;;;;;;;20.00;89.20;;;;;;6277150;22;42858;-78
2023/10/30 06:37:09;;;;;;;;;;;20.00;89.70;;;;;;6275764;22;43783;-79
2023/10/30 06:39:34;;;;;;;;;;;19.80;89.70;;;;;;6276400;22;42899;-78
2023/10/30 06:42:00;;;;;;;;;;;19.90;89.80;;;;;;6276158;22;43338;-83
2023/10/30 06:44:25;;;;;;;;;;;19.90;89.60;;;;;;6278473;22;42748;-82
2023/10/30 06:46:51;;;;;;;;;;;19.80;90.00;;;;;;6279043;22;43935;-78
2023/10/30 06:49:17;;;;;;;;;;;19.90;89.70;;;;;;6279278;22;43145;-80
2023/10/30 06:51:42;;;;;;;;;;;19.80;89.90;;;;;;6278563;22;42850;-82
2023/10/30 06:54:11;;;;;;;;;;;19.90;89.80;;;;;;6278275;22;43328;-82
2023/10/30 06:56:37;;;;;;;;;;;19.80;88.40;;;;;;6277284;22;42846;-83
2023/10/30 06:59:03;;;;;;;;;;;19.90;90.10;;;;;;6279068;22;42918;-77
2023/10/30 07:01:33;;;;;;;;;;;19.90;90.10;;;;;;6279094;22;42940;-76
2023/10/30 07:03:58;;;;;;;;;;;19.90;90.10;;;;;;6279160;22;42874;-79
2023/10/30 07:06:24;;;;;;;;;;;19.80;90.20;;;;;;6277915;22;42987;-83
2023/10/30 07:08:50;;;;;;;;;;;19.80;90.10;;;;;;6278672;22;42877;-83
2023/10/30 07:11:15;;;;;;;;;;;20.00;90.30;;;;;;6278902;22;43521;-81
2023/10/30 07:13:41;;;;;;;;;;;19.80;90.20;;;;;;6278949;22;42807;-79
2023/10/30 07:16:07;;;;;;;;;;;19.80;90.00;;;;;;6277985;22;42807;-80
2023/10/30 07:18:33;;;;;;;;;;;19.90;90.20;;;;;;6277793;22;42815;-77
2023/10/30 07:20:59;;;;;;;;;;;19.80;90.20;;;;;;6278285;22;42681;-82
2023/10/30 07:23:24;;;;;;;;;;;19.90;90.20;;;;;;6289286;22;42929;-81
2023/10/30 07:25:49;;;;;;;;;;;19.90;90.20;;;;;;6290437;22;42889;-82
2023/10/30 07:28:16;;;;;;;;;;;19.80;90.20;;;;;;6284692;22;42792;-82
2023/10/30 07:30:42;;;;;;;;;;;19.80;90.30;;;;;;6279370;22;45480;-76
2023/10/30 07:33:07;;;;;;;;;;;19.70;90.30;;;;;;6277621;22;42919;-82
2023/10/30 07:35:33;;;;;;;;;;;19.70;90.30;;;;;;6279231;22;43674;-83
2023/10/30 07:37:58;;;;;;;;;;;20.00;90.40;;;;;;6277448;22;42898;-81
2023/10/30 07:40:26;;;;;;;;;;;19.80;90.20;;;;;;6277376;22;42911;-83
2023/10/30 07:42:57;;;;;;;;;;;20.20;90.60;;;;;;6278026;22;42997;-75
2023/10/30 07:45:23;;;;;;;;;;;20.10;90.60;;;;;;6277946;22;42792;-78
2023/10/30 07:47:49;;;;;;;;;;;19.80;90.50;;;;;;6277947;22;42959;-75
2023/10/30 07:50:15;;;;;;;;;;;19.90;90.60;;;;;;6277190;22;42906;-77
2023/10/30 07:52:40;;;;;;;;;;;19.80;90.40;;;;;;6277363;22;42855;-75
2023/10/30 07:55:06;;;;;;;;;;;20.00;90.70;;;;;;6276547;22;43630;-77
2023/10/30 07:57:32;;;;;;;;;;;19.80;90.40;;;;;;6275678;22;42976;-75
2023/10/30 07:59:57;;;;;;;;;;;19.90;90.70;;;;;;6276909;22;42906;-77
2023/10/30 08:02:23;;;;;;;;;;;19.80;90.50;;;;;;6276697;22;42934;-75
2023/10/30 08:04:48;;;;;;;;;;;19.90;90.50;;;;;;6275739;22;43928;-75
2023/10/30 08:07:14;;;;;;;;;;;19.80;90.70;;;;;;6276737;22;42886;-74
2023/10/30 08:09:39;;;;;;;;;;;20.20;90.70;;;;;;6277384;22;43268;-75
2023/10/30 08:12:05;;;;;;;;;;;20.00;90.40;;;;;;6277380;22;42786;-81
2023/10/30 08:14:31;;;;;;;;;;;19.80;90.50;;;;;;6277107;22;42916;-75
2023/10/30 08:16:56;;;;;;;;;;;19.90;90.70;;;;;;6278306;22;42793;-82
2023/10/30 08:19:22;;;;;;;;;;;20.00;90.90;;;;;;6279298;22;42926;-75
2023/10/30 08:21:47;;;;;;;;;;;19.90;90.60;;;;;;6278175;22;42862;-78
2023/10/30 08:24:14;;;;;;;;;;;19.90;90.80;;;;;;6277644;22;42961;-75
2023/10/30 08:26:39;;;;;;;;;;;19.80;90.80;;;;;;6278456;22;42748;-76
2023/10/30 08:29:05;;;;;;;;;;;19.80;90.80;;;;;;6278453;22;42836;-77
2023/10/30 08:31:30;;;;;;;;;;;19.80;90.60;;;;;;6278568;22;42878;-75
2023/10/30 08:34:00;;;;;;;;;;;19.80;90.60;;;;;;6278295;22;42894;-77
2023/10/30 08:36:26;;;;;;;;;;;19.80;90.80;;;;;;6279041;22;42970;-81
2023/10/30 08:38:51;;;;;;;;;;;19.90;90.90;;;;;;6278494;22;42751;-75
2023/10/30 08:41:17;;;;;;;;;;;19.80;90.90;;;;;;6279072;22;42914;-77
2023/10/30 08:43:43;;;;;;;;;;;19.80;90.90;;;;;;6278450;22;43442;-75
2023/10/30 08:46:09;;;;;;;;;;;19.80;90.90;;;;;;6279025;22;42802;-76
2023/10/30 08:48:35;;;;;;;;;;;19.90;90.80;;;;;;6278432;22;43385;-77
2023/10/30 08:51:03;;;;;;;;;;;19.80;90.90;;;;;;6279189;22;42798;-76
2023/10/30 17:59:15;;;;;;;;;;;19.80;91.40;;;;;;6192145;22;1818462;-76
2023/10/30 18:01:57;;;;;;;;;;;19.70;91.00;;;;;;6272134;22;42907;-79
2023/10/30 18:04:22;;;;;;;;;;;19.90;90.80;;;;;;6272410;22;42947;-79
2023/10/30 18:06:48;;;;;;;;;;;19.90;91.40;;;;;;6270996;22;43361;-75
2023/10/30 18:09:13;;;;;;;;;;;20.00;91.90;;;;;;6276846;22;43121;-75
2023/10/30 18:11:40;;;;;;;;;;;19.80;91.90;;;;;;6249597;22;43638;-78
2023/10/30 18:14:05;;;;;;;;;;;19.80;91.70;;;;;;6275856;22;42914;-77
2023/10/30 18:16:31;;;;;;;;;;;19.90;92.00;;;;;;6273377;22;43360;-77
2023/10/30 18:18:56;;;;;;;;;;;19.80;91.90;;;;;;6275331;22;42815;-76
2023/10/30 18:24:25;;;;;;;;;;;19.90;91.10;;;;;;6274782;22;42862;-76
2023/10/30 18:26:57;;;;;;;;;;;19.90;91.80;;;;;;6277850;22;42987;-76
2023/10/30 18:29:23;;;;;;;;;;;19.90;91.90;;;;;;6276535;22;43031;-76
2023/10/30 18:31:50;;;;;;;;;;;19.80;91.90;;;;;;6274846;22;42911;-75
2023/10/30 18:34:16;;;;;;;;;;;19.80;91.90;;;;;;6274864;22;42872;-82
2023/10/30 18:36:41;;;;;;;;;;;19.80;92.00;;;;;;6275059;22;43386;-82
2023/10/30 18:39:08;;;;;;;;;;;19.80;91.90;;;;;;6275109;22;42790;-76
2023/10/30 18:41:42;;;;;;;;;;;19.90;92.00;;;;;;6274157;22;42910;-82
2023/10/30 18:44:14;;;;;;;;;;;20.10;91.10;;;;;;6275385;22;42792;-82
2023/10/30 18:46:39;;;;;;;;;;;20.00;91.20;;;;;;6270946;22;43108;-80
2023/10/30 18:49:06;;;;;;;;;;;19.90;92.10;;;;;;6276488;22;42759;-76
2023/10/30 18:51:33;;;;;;;;;;;19.90;92.10;;;;;;6277515;22;44343;-81
2023/10/30 18:53:59;;;;;;;;;;;19.80;92.20;;;;;;6276411;22;42941;-76
2023/10/30 18:56:24;;;;;;;;;;;19.80;92.10;;;;;;6275475;22;42885;-81
2023/10/30 18:58:52;;;;;;;;;;;20.00;92.00;;;;;;6276665;22;42875;-80
2023/10/30 19:01:17;;;;;;;;;;;19.70;92.10;;;;;;6275857;22;43463;-79
2023/10/30 19:03:43;;;;;;;;;;;19.90;92.20;;;;;;6275756;22;42834;-82
2023/10/30 19:06:08;;;;;;;;;;;19.90;92.20;;;;;;6275870;22;43614;-81
2023/10/30 19:08:34;;;;;;;;;;;19.90;92.10;;;;;;6274146;22;42929;-82
2023/10/30 19:11:00;;;;;;;;;;;19.80;92.30;;;;;;6276078;22;43576;-79
2023/10/30 19:13:26;;;;;;;;;;;19.90;92.10;;;;;;6273260;22;42929;-76
2023/10/30 19:15:52;;;;;;;;;;;19.80;92.30;;;;;;6274727;22;43710;-81
2023/10/30 19:18:17;;;;;;;;;;;19.90;92.30;;;;;;6274817;22;43158;-76
2023/10/30 19:20:43;;;;;;;;;;;20.00;92.10;;;;;;6272434;22;43150;-82
2023/10/30 19:23:08;;;;;;;;;;;19.80;92.30;;;;;;6272195;22;43012;-75
2023/10/30 19:25:34;;;;;;;;;;;19.80;92.10;;;;;;6273311;22;43088;-81
2023/10/30 19:27:59;;;;;;;;;;;19.90;92.40;;;;;;6272441;22;42760;-77
2023/10/30 19:30:25;;;;;;;;;;;20.00;92.20;;;;;;6272305;22;43325;-78
2023/10/30 19:32:53;;;;;;;;;;;20.00;92.60;;;;;;6270763;22;43842;-82
2023/10/30 19:35:19;;;;;;;;;;;19.90;91.30;;;;;;6273773;22;42901;-76
2023/10/30 19:37:44;;;;;;;;;;;20.10;92.40;;;;;;6274161;22;43459;-79
2023/10/30 19:40:10;;;;;;;;;;;20.00;92.20;;;;;;6275019;22;43034;-80
2023/10/30 19:42:36;;;;;;;;;;;19.90;92.10;;;;;;6249299;22;43106;-76
2023/10/30 19:45:02;;;;;;;;;;;20.00;92.50;;;;;;6276508;22;43532;-81
2023/10/30 19:47:27;;;;;;;;;;;19.80;92.30;;;;;;6275778;22;42914;-77
2023/10/30 19:49:53;;;;;;;;;;;19.80;92.20;;;;;;6275560;22;43256;-82
2023/10/30 19:52:18;;;;;;;;;;;19.90;92.30;;;;;;6276094;22;42758;-76
2023/10/30 19:54:43;;;;;;;;;;;20.10;92.60;;;;;;6275564;22;42817;-75
2023/10/30 19:57:09;;;;;;;;;;;19.90;92.50;;;;;;6275175;22;42874;-75
2023/10/30 19:59:34;;;;;;;;;;;20.00;92.30;;;;;;6275169;22;43906;-75
2023/10/30 20:02:00;;;;;;;;;;;19.90;92.30;;;;;;6275994;22;42810;-75
2023/10/30 20:04:25;;;;;;;;;;;19.90;92.70;;;;;;6276086;22;42853;-75
2023/10/30 20:06:51;;;;;;;;;;;19.80;92.40;;;;;;6277613;22;42897;-75
2023/10/30 20:09:16;;;;;;;;;;;20.10;92.60;;;;;;6277688;22;42786;-76
2023/10/30 20:11:42;;;;;;;;;;;20.30;92.70;;;;;;6282705;22;42766;-76
2023/10/30 20:14:08;;;;;;;;;;;19.80;92.60;;;;;;6283320;22;43388;-76
2023/10/30 20:16:35;;;;;;;;;;;19.90;92.70;;;;;;6281099;22;42873;-74
2023/10/30 20:19:00;;;;;;;;;;;19.90;92.70;;;;;;6279001;22;42912;-75
2023/10/30 20:21:26;;;;;;;;;;;20.00;92.60;;;;;;6278740;22;42858;-74
2023/10/30 20:23:51;;;;;;;;;;;20.00;92.60;;;;;;6277101;22;42940;-75
2023/10/30 20:26:19;;;;;;;;;;;19.90;92.80;;;;;;6277825;22;42798;-75
2023/10/30 20:28:44;;;;;;;;;;;19.90;92.80;;;;;;6251015;22;44564;-75
2023/10/30 20:31:10;;;;;;;;;;;19.80;92.60;;;;;;6277837;22;42906;-74
2023/10/30 20:33:36;;;;;;;;;;;19.80;92.80;;;;;;6275880;22;43441;-75
2023/10/30 20:36:02;;;;;;;;;;;19.90;92.80;;;;;;6277216;22;42801;-75
2023/10/30 20:38:28;;;;;;;;;;;20.10;92.80;;;;;;6278528;22;44329;-78
2023/10/30 20:40:53;;;;;;;;;;;19.90;92.80;;;;;;6277954;22;43118;-76
2023/10/30 20:43:19;;;;;;;;;;;19.90;92.80;;;;;;6277072;22;43436;-75
2023/10/30 20:45:45;;;;;;;;;;;19.70;92.60;;;;;;6277472;22;42856;-75
2023/10/30 20:48:11;;;;;;;;;;;20.10;93.00;;;;;;6277086;22;42921;-76
2023/10/30 20:50:37;;;;;;;;;;;19.80;92.90;;;;;;6277212;22;42793;-75
2023/10/30 20:53:04;;;;;;;;;;;20.00;93.00;;;;;;6276841;22;42945;-75
2023/10/30 20:55:29;;;;;;;;;;;19.90;92.80;;;;;;6277069;22;42838;-76
2023/10/30 20:57:55;;;;;;;;;;;20.00;93.10;;;;;;6277397;22;43283;-75
2023/10/30 21:00:21;;;;;;;;;;;20.00;93.10;;;;;;6276619;22;42866;-75
2023/10/30 21:02:46;;;;;;;;;;;19.90;93.10;;;;;;6274026;22;43147;-75
2023/10/30 21:05:12;;;;;;;;;;;19.80;93.00;;;;;;6275589;22;42759;-75
2023/10/30 21:07:37;;;;;;;;;;;19.90;93.10;;;;;;6276835;22;42715;-75
2023/10/30 21:10:03;;;;;;;;;;;19.90;92.90;;;;;;6250186;22;42971;-75
2023/10/30 21:12:29;;;;;;;;;;;20.00;93.00;;;;;;6275899;22;42898;-76
2023/10/30 21:14:56;;;;;;;;;;;19.60;92.70;;;;;;6274726;22;43187;-75
2023/10/30 21:17:21;;;;;;;;;;;19.90;92.80;;;;;;6276408;22;42958;-76
2023/10/30 21:19:47;;;;;;;;;;;20.00;93.10;;;;;;6276089;22;42917;-75
2023/10/30 21:22:12;;;;;;;;;;;20.00;92.90;;;;;;6276473;22;42838;-75
2023/10/30 21:24:38;;;;;;;;;;;20.00;92.90;;;;;;6276382;22;42957;-75
2023/10/30 21:27:13;;;;;;;;;;;20.00;93.20;;;;;;6276711;22;43533;-75
2023/10/30 21:29:39;;;;;;;;;;;19.90;92.30;;;;;;6276218;22;42882;-76
2023/10/30 21:32:05;;;;;;;;;;;20.00;93.00;;;;;;6276359;22;42906;-75
2023/10/30 21:34:31;;;;;;;;;;;20.10;93.00;;;;;;6276173;22;42865;-75
2023/10/30 21:37:03;;;;;;;;;;;20.00;92.60;;;;;;6272310;22;42925;-76
2023/10/30 21:39:29;;;;;;;;;;;20.10;92.30;;;;;;6276814;22;42818;-77
2023/10/30 21:41:54;;;;;;;;;;;20.00;93.10;;;;;;6276958;22;43588;-75
2023/10/30 21:44:20;;;;;;;;;;;20.10;93.10;;;;;;6278571;22;42786;-75
2023/10/30 21:46:45;;;;;;;;;;;20.00;93.10;;;;;;6276914;22;43280;-75
2023/10/30 21:49:13;;;;;;;;;;;20.00;92.90;;;;;;6279360;22;43005;-75
2023/10/30 21:51:44;;;;;;;;;;;20.00;93.10;;;;;;6279740;22;43371;-75
2023/10/30 21:54:09;;;;;;;;;;;20.20;92.30;;;;;;6278541;22;43494;-75
2023/10/30 21:56:35;;;;;;;;;;;19.90;93.00;;;;;;6278166;22;42916;-75
2023/10/30 21:59:00;;;;;;;;;;;20.00;92.90;;;;;;6250989;22;43046;-75
2023/10/30 22:01:26;;;;;;;;;;;20.00;93.10;;;;;;6273358;22;43539;-79
2023/10/30 22:03:51;;;;;;;;;;;20.00;92.90;;;;;;6275029;22;42902;-76
2023/10/30 22:06:17;;;;;;;;;;;20.10;93.00;;;;;;6275825;22;42929;-75
2023/10/30 22:08:42;;;;;;;;;;;20.00;93.10;;;;;;6276365;22;42953;-75
2023/10/30 22:11:08;;;;;;;;;;;20.00;93.40;;;;;;6279270;22;42869;-76
2023/10/30 22:13:33;;;;;;;;;;;20.00;93.50;;;;;;6275436;22;42938;-78
2023/10/30 22:15:59;;;;;;;;;;;20.00;93.90;;;;;;6274917;22;43059;-76
2023/10/30 22:18:24;;;;;;;;;;;19.90;93.80;;;;;;6274909;22;42886;-75
2023/10/30 22:20:50;;;;;;;;;;;19.90;93.80;;;;;;6276279;22;43243;-76
2023/10/30 22:23:16;;;;;;;;;;;20.10;93.70;;;;;;6276030;22;42817;-78
2023/10/30 22:25:42;;;;;;;;;;;20.00;93.70;;;;;;6248699;22;44276;-76
2023/10/30 22:28:07;;;;;;;;;;;19.90;93.80;;;;;;6275757;22;42805;-75
2023/10/30 22:30:33;;;;;;;;;;;20.00;93.90;;;;;;6273919;22;43311;-76
2023/10/30 22:32:59;;;;;;;;;;;20.00;93.70;;;;;;6273268;22;43090;-76
2023/10/30 22:35:24;;;;;;;;;;;20.10;93.90;;;;;;6276372;22;42803;-76
2023/10/30 22:37:50;;;;;;;;;;;20.00;93.90;;;;;;6282478;22;42863;-76
2023/10/30 22:40:15;;;;;;;;;;;20.00;93.90;;;;;;6289543;22;42791;-76
2023/10/30 22:42:41;;;;;;;;;;;20.10;93.70;;;;;;6280817;22;42855;-75
2023/10/30 22:45:08;;;;;;;;;;;19.90;93.80;;;;;;6276363;22;42887;-76
2023/10/30 22:47:33;;;;;;;;;;;20.10;93.70;;;;;;6274853;22;42931;-76
2023/10/30 22:49:59;;;;;;;;;;;19.90;93.90;;;;;;6274265;22;42917;-76
2023/10/30 22:52:25;;;;;;;;;;;20.10;93.90;;;;;;6274024;22;42937;-78
2023/10/30 22:54:51;;;;;;;;;;;20.00;93.70;;;;;;6273923;22;42837;-75
2023/10/30 22:57:16;;;;;;;;;;;20.00;94.00;;;;;;6274134;22;43134;-77
2023/10/30 22:59:42;;;;;;;;;;;20.70;94.10;;;;;;6276020;22;43295;-77
2023/10/30 23:02:07;;;;;;;;;;;20.00;93.80;;;;;;6277067;22;42830;-79
2023/10/30 23:04:33;;;;;;;;;;;20.10;93.80;;;;;;6278604;22;43381;-76
2023/10/30 23:06:59;;;;;;;;;;;19.90;93.60;;;;;;6278657;22;42938;-75
2023/10/30 23:09:24;;;;;;;;;;;20.10;93.80;;;;;;6277617;22;43002;-77
2023/10/30 23:11:50;;;;;;;;;;;20.10;93.70;;;;;;6275378;22;42838;-76
2023/10/30 23:14:15;;;;;;;;;;;19.90;93.60;;;;;;6276641;22;42997;-75
2023/10/30 23:16:41;;;;;;;;;;;20.10;93.40;;;;;;6276837;22;42807;-76
2023/10/30 23:19:06;;;;;;;;;;;20.10;93.60;;;;;;6276934;22;42856;-75
2023/10/30 23:21:32;;;;;;;;;;;20.00;93.60;;;;;;6276254;22;42947;-75
2023/10/30 23:23:57;;;;;;;;;;;20.10;93.70;;;;;;6275711;22;42780;-75